Detroit, Michigan
Current Conditions -  °F | °C
As of 7:00 AM on Monday 22 Dec 2014 (Local Time) from CYQG Reporting Station
Scattered Clouds Scattered Clouds  
Wind Chill: 17°   Ceiling: Unl
Heat Index: 23°   Visibility: 8mi
Dew Point: 21°   Wind: 5mph
Humidity: 93%   Direction: 70°ENE
Pressure: 30.11"   Gusts: NA
Location:  42.33°N, 83.05°W
Report Text: CYQG 221200Z 07004KT 8SM SCT240 M05/M06 A3011 RMK CI4 SLP205
Loading
Personal Weather Stations






























Interactive Weather Map New forecast layout! Learn more

10-Day Weather Forecast

Advertisements
Track Severe Weather on mobile